sensor_id;sensor_type;location;lat;lon;timestamp;P1;durP1;ratioP1;P2;durP2;ratioP2
58752;SDS011;44525;46.052;13.610;2023-08-21T00:01:27;18.65;;;15.50;;
58752;SDS011;44525;46.052;13.610;2023-08-21T00:03:53;18.08;;;14.48;;
58752;SDS011;44525;46.052;13.610;2023-08-21T00:06:18;18.45;;;15.82;;
58752;SDS011;44525;46.052;13.610;2023-08-21T00:08:43;20.85;;;16.45;;
58752;SDS011;44525;46.052;13.610;2023-08-21T00:11:09;19.73;;;14.82;;
58752;SDS011;44525;46.052;13.610;2023-08-21T00:13:34;27.48;;;14.85;;
58752;SDS011;44525;46.052;13.610;2023-08-21T00:16:00;18.52;;;15.13;;
58752;SDS011;44525;46.052;13.610;2023-08-21T00:18:25;19.42;;;15.02;;
58752;SDS011;44525;46.052;13.610;2023-08-21T00:20:51;18.02;;;14.15;;
58752;SDS011;44525;46.052;13.610;2023-08-21T00:23:16;18.75;;;14.60;;
58752;SDS011;44525;46.052;13.610;2023-08-21T00:25:45;20.70;;;14.70;;
58752;SDS011;44525;46.052;13.610;2023-08-21T00:28:11;20.02;;;14.25;;
58752;SDS011;44525;46.052;13.610;2023-08-21T00:30:37;20.60;;;14.63;;
58752;SDS011;44525;46.052;13.610;2023-08-21T00:33:02;18.63;;;14.52;;
58752;SDS011;44525;46.052;13.610;2023-08-21T00:35:28;19.23;;;14.25;;
58752;SDS011;44525;46.052;13.610;2023-08-21T00:37:53;18.45;;;15.15;;
58752;SDS011;44525;46.052;13.610;2023-08-21T00:40:19;18.20;;;14.50;;
58752;SDS011;44525;46.052;13.610;2023-08-21T00:42:44;19.13;;;14.13;;
58752;SDS011;44525;46.052;13.610;2023-08-21T00:45:09;18.27;;;13.85;;
58752;SDS011;44525;46.052;13.610;2023-08-21T00:47:36;19.65;;;15.45;;
58752;SDS011;44525;46.052;13.610;2023-08-21T00:50:02;18.75;;;14.68;;
58752;SDS011;44525;46.052;13.610;2023-08-21T00:52:31;20.75;;;15.27;;
58752;SDS011;44525;46.052;13.610;2023-08-21T00:54:56;21.02;;;15.88;;
58752;SDS011;44525;46.052;13.610;2023-08-21T00:57:22;17.13;;;14.50;;
58752;SDS011;44525;46.052;13.610;2023-08-21T00:59:48;20.90;;;14.95;;
58752;SDS011;44525;46.052;13.610;2023-08-21T01:02:13;19.45;;;14.85;;
58752;SDS011;44525;46.052;13.610;2023-08-21T01:04:39;22.40;;;14.98;;
58752;SDS011;44525;46.052;13.610;2023-08-21T01:07:05;21.05;;;15.75;;
58752;SDS011;44525;46.052;13.610;2023-08-21T01:09:50;20.00;;;15.02;;
58752;SDS011;44525;46.052;13.610;2023-08-21T01:15:10;19.00;;;15.73;;
58752;SDS011;44525;46.052;13.610;2023-08-21T01:17:37;21.13;;;15.68;;
58752;SDS011;44525;46.052;13.610;2023-08-21T01:20:03;16.77;;;13.90;;
58752;SDS011;44525;46.052;13.610;2023-08-21T01:22:38;23.48;;;14.88;;
58752;SDS011;44525;46.052;13.610;2023-08-21T01:25:05;19.05;;;14.85;;
58752;SDS011;44525;46.052;13.610;2023-08-21T01:27:31;19.55;;;15.63;;
58752;SDS011;44525;46.052;13.610;2023-08-21T01:29:57;18.10;;;14.93;;
58752;SDS011;44525;46.052;13.610;2023-08-21T01:32:27;18.63;;;15.00;;
58752;SDS011;44525;46.052;13.610;2023-08-21T01:34:58;22.77;;;15.02;;
58752;SDS011;44525;46.052;13.610;2023-08-21T01:37:24;18.52;;;15.05;;
58752;SDS011;44525;46.052;13.610;2023-08-21T01:39:51;22.50;;;15.82;;
58752;SDS011;44525;46.052;13.610;2023-08-21T01:42:17;20.08;;;15.15;;
58752;SDS011;44525;46.052;13.610;2023-08-21T01:44:42;20.70;;;15.05;;
58752;SDS011;44525;46.052;13.610;2023-08-21T01:47:11;18.73;;;15.13;;
58752;SDS011;44525;46.052;13.610;2023-08-21T01:49:36;21.98;;;15.77;;
58752;SDS011;44525;46.052;13.610;2023-08-21T01:52:02;17.95;;;13.90;;
58752;SDS011;44525;46.052;13.610;2023-08-21T01:54:27;21.15;;;14.90;;
58752;SDS011;44525;46.052;13.610;2023-08-21T01:56:53;19.15;;;15.07;;
58752;SDS011;44525;46.052;13.610;2023-08-21T01:59:19;20.55;;;15.38;;
58752;SDS011;44525;46.052;13.610;2023-08-21T02:01:45;23.90;;;15.45;;
58752;SDS011;44525;46.052;13.610;2023-08-21T02:04:10;19.40;;;15.60;;
58752;SDS011;44525;46.052;13.610;2023-08-21T02:06:35;19.05;;;14.93;;
58752;SDS011;44525;46.052;13.610;2023-08-21T02:09:01;22.48;;;15.93;;
58752;SDS011;44525;46.052;13.610;2023-08-21T02:11:26;19.20;;;14.38;;
58752;SDS011;44525;46.052;13.610;2023-08-21T02:13:51;19.05;;;15.05;;
58752;SDS011;44525;46.052;13.610;2023-08-21T02:16:17;21.45;;;15.73;;
58752;SDS011;44525;46.052;13.610;2023-08-21T02:18:42;23.95;;;15.45;;
58752;SDS011;44525;46.052;13.610;2023-08-21T02:21:07;19.17;;;14.73;;
58752;SDS011;44525;46.052;13.610;2023-08-21T02:23:33;21.67;;;14.80;;
58752;SDS011;44525;46.052;13.610;2023-08-21T02:25:58;21.75;;;14.82;;
58752;SDS011;44525;46.052;13.610;2023-08-21T02:28:24;19.20;;;14.90;;
58752;SDS011;44525;46.052;13.610;2023-08-21T02:30:49;21.95;;;15.05;;
58752;SDS011;44525;46.052;13.610;2023-08-21T02:33:15;19.10;;;15.90;;
58752;SDS011;44525;46.052;13.610;2023-08-21T02:35:40;19.70;;;14.98;;
58752;SDS011;44525;46.052;13.610;2023-08-21T02:38:06;21.42;;;15.75;;
58752;SDS011;44525;46.052;13.610;2023-08-21T02:40:31;19.00;;;14.82;;
58752;SDS011;44525;46.052;13.610;2023-08-21T02:42:57;20.17;;;15.23;;
58752;SDS011;44525;46.052;13.610;2023-08-21T02:45:23;23.23;;;15.55;;
58752;SDS011;44525;46.052;13.610;2023-08-21T02:47:48;22.55;;;15.75;;
58752;SDS011;44525;46.052;13.610;2023-08-21T02:50:14;18.95;;;15.35;;
58752;SDS011;44525;46.052;13.610;2023-08-21T02:52:39;19.75;;;15.55;;
58752;SDS011;44525;46.052;13.610;2023-08-21T02:55:05;23.20;;;16.50;;
58752;SDS011;44525;46.052;13.610;2023-08-21T02:57:30;22.10;;;16.83;;
58752;SDS011;44525;46.052;13.610;2023-08-21T02:59:56;23.58;;;17.13;;
58752;SDS011;44525;46.052;13.610;2023-08-21T03:02:22;18.10;;;15.23;;
58752;SDS011;44525;46.052;13.610;2023-08-21T03:04:48;17.73;;;14.57;;
58752;SDS011;44525;46.052;13.610;2023-08-21T03:07:13;20.92;;;15.40;;
58752;SDS011;44525;46.052;13.610;2023-08-21T03:09:39;23.20;;;15.55;;
58752;SDS011;44525;46.052;13.610;2023-08-21T03:12:05;17.55;;;14.23;;
58752;SDS011;44525;46.052;13.610;2023-08-21T03:14:31;19.00;;;15.77;;
58752;SDS011;44525;46.052;13.610;2023-08-21T03:16:57;22.02;;;15.38;;
58752;SDS011;44525;46.052;13.610;2023-08-21T03:19:22;21.60;;;16.00;;
58752;SDS011;44525;46.052;13.610;2023-08-21T03:21:48;19.52;;;15.77;;
58752;SDS011;44525;46.052;13.610;2023-08-21T03:24:13;19.13;;;15.43;;
58752;SDS011;44525;46.052;13.610;2023-08-21T03:26:39;18.77;;;15.13;;
58752;SDS011;44525;46.052;13.610;2023-08-21T03:29:04;18.10;;;15.55;;
58752;SDS011;44525;46.052;13.610;2023-08-21T03:31:29;19.98;;;14.23;;
58752;SDS011;44525;46.052;13.610;2023-08-21T03:33:55;20.48;;;15.63;;
58752;SDS011;44525;46.052;13.610;2023-08-21T03:36:21;17.45;;;14.93;;
58752;SDS011;44525;46.052;13.610;2023-08-21T03:38:55;18.95;;;15.25;;
58752;SDS011;44525;46.052;13.610;2023-08-21T03:41:21;22.05;;;15.63;;
58752;SDS011;44525;46.052;13.610;2023-08-21T03:43:47;19.17;;;16.25;;
58752;SDS011;44525;46.052;13.610;2023-08-21T03:46:12;18.05;;;15.05;;
58752;SDS011;44525;46.052;13.610;2023-08-21T03:48:38;20.23;;;16.27;;
58752;SDS011;44525;46.052;13.610;2023-08-21T03:51:03;18.08;;;14.07;;
58752;SDS011;44525;46.052;13.610;2023-08-21T03:53:28;20.40;;;15.05;;
58752;SDS011;44525;46.052;13.610;2023-08-21T03:55:54;19.27;;;15.15;;
58752;SDS011;44525;46.052;13.610;2023-08-21T03:58:19;21.17;;;15.02;;
58752;SDS011;44525;46.052;13.610;2023-08-21T04:00:45;20.80;;;15.93;;
58752;SDS011;44525;46.052;13.610;2023-08-21T04:03:10;20.77;;;15.60;;
58752;SDS011;44525;46.052;13.610;2023-08-21T04:05:35;18.35;;;14.73;;
58752;SDS011;44525;46.052;13.610;2023-08-21T04:08:02;21.00;;;14.88;;
58752;SDS011;44525;46.052;13.610;2023-08-21T04:10:28;17.65;;;15.38;;
58752;SDS011;44525;46.052;13.610;2023-08-21T04:12:53;19.67;;;15.23;;
58752;SDS011;44525;46.052;13.610;2023-08-21T04:15:18;19.65;;;15.70;;
58752;SDS011;44525;46.052;13.610;2023-08-21T04:17:44;18.52;;;14.70;;
58752;SDS011;44525;46.052;13.610;2023-08-21T04:20:10;20.02;;;14.98;;
58752;SDS011;44525;46.052;13.610;2023-08-21T04:22:36;18.65;;;15.27;;
58752;SDS011;44525;46.052;13.610;2023-08-21T04:25:01;21.15;;;15.80;;
58752;SDS011;44525;46.052;13.610;2023-08-21T04:27:27;20.63;;;16.33;;
58752;SDS011;44525;46.052;13.610;2023-08-21T04:29:53;18.92;;;15.68;;
58752;SDS011;44525;46.052;13.610;2023-08-21T04:32:18;22.73;;;16.00;;
58752;SDS011;44525;46.052;13.610;2023-08-21T04:34:44;20.00;;;14.90;;
58752;SDS011;44525;46.052;13.610;2023-08-21T04:37:09;22.98;;;15.55;;
58752;SDS011;44525;46.052;13.610;2023-08-21T04:39:34;20.02;;;15.45;;
58752;SDS011;44525;46.052;13.610;2023-08-21T04:42:01;20.77;;;15.75;;
58752;SDS011;44525;46.052;13.610;2023-08-21T04:44:27;22.08;;;16.08;;
58752;SDS011;44525;46.052;13.610;2023-08-21T04:46:52;19.50;;;15.07;;
58752;SDS011;44525;46.052;13.610;2023-08-21T04:49:18;19.02;;;16.63;;
58752;SDS011;44525;46.052;13.610;2023-08-21T04:51:43;19.95;;;15.52;;
58752;SDS011;44525;46.052;13.610;2023-08-21T04:54:08;19.77;;;15.95;;
58752;SDS011;44525;46.052;13.610;2023-08-21T04:56:34;23.33;;;16.38;;
58752;SDS011;44525;46.052;13.610;2023-08-21T04:58:59;20.85;;;15.88;;
58752;SDS011;44525;46.052;13.610;2023-08-21T05:01:24;22.83;;;15.55;;
58752;SDS011;44525;46.052;13.610;2023-08-21T05:03:50;17.75;;;14.55;;
58752;SDS011;44525;46.052;13.610;2023-08-21T05:06:16;18.73;;;14.88;;
58752;SDS011;44525;46.052;13.610;2023-08-21T05:08:41;19.55;;;15.07;;
58752;SDS011;44525;46.052;13.610;2023-08-21T05:11:07;20.63;;;15.30;;
58752;SDS011;44525;46.052;13.610;2023-08-21T05:13:32;19.70;;;14.82;;
58752;SDS011;44525;46.052;13.610;2023-08-21T05:15:58;19.80;;;14.73;;
58752;SDS011;44525;46.052;13.610;2023-08-21T05:18:24;21.33;;;15.45;;
58752;SDS011;44525;46.052;13.610;2023-08-21T05:20:50;16.77;;;14.63;;
58752;SDS011;44525;46.052;13.610;2023-08-21T05:23:19;17.77;;;14.18;;
58752;SDS011;44525;46.052;13.610;2023-08-21T05:25:46;19.40;;;14.30;;
58752;SDS011;44525;46.052;13.610;2023-08-21T05:28:13;17.63;;;14.75;;
58752;SDS011;44525;46.052;13.610;2023-08-21T05:30:38;16.40;;;14.38;;
58752;SDS011;44525;46.052;13.610;2023-08-21T05:33:04;17.60;;;13.73;;
58752;SDS011;44525;46.052;13.610;2023-08-21T05:35:33;19.08;;;14.70;;
58752;SDS011;44525;46.052;13.610;2023-08-21T05:38:00;16.63;;;13.13;;
58752;SDS011;44525;46.052;13.610;2023-08-21T05:40:27;15.85;;;12.90;;
58752;SDS011;44525;46.052;13.610;2023-08-21T05:42:52;16.23;;;12.95;;
58752;SDS011;44525;46.052;13.610;2023-08-21T05:45:17;19.60;;;13.88;;
58752;SDS011;44525;46.052;13.610;2023-08-21T05:47:43;17.77;;;13.32;;
58752;SDS011;44525;46.052;13.610;2023-08-21T05:50:08;21.20;;;13.35;;
58752;SDS011;44525;46.052;13.610;2023-08-21T05:52:34;16.15;;;13.25;;
58752;SDS011;44525;46.052;13.610;2023-08-21T05:54:59;16.90;;;13.05;;
58752;SDS011;44525;46.052;13.610;2023-08-21T05:57:25;18.73;;;13.55;;
58752;SDS011;44525;46.052;13.610;2023-08-21T05:59:50;16.88;;;12.65;;
58752;SDS011;44525;46.052;13.610;2023-08-21T06:02:16;17.75;;;12.35;;
58752;SDS011;44525;46.052;13.610;2023-08-21T06:04:42;18.10;;;12.30;;
58752;SDS011;44525;46.052;13.610;2023-08-21T06:07:08;17.20;;;12.95;;
58752;SDS011;44525;46.052;13.610;2023-08-21T06:09:34;16.77;;;13.13;;
58752;SDS011;44525;46.052;13.610;2023-08-21T06:12:00;16.13;;;11.95;;
58752;SDS011;44525;46.052;13.610;2023-08-21T06:14:26;18.60;;;12.70;;
58752;SDS011;44525;46.052;13.610;2023-08-21T06:16:59;17.58;;;12.77;;
58752;SDS011;44525;46.052;13.610;2023-08-21T06:19:26;14.65;;;11.55;;
58752;SDS011;44525;46.052;13.610;2023-08-21T06:21:52;15.77;;;11.55;;
58752;SDS011;44525;46.052;13.610;2023-08-21T06:24:17;14.93;;;11.45;;
58752;SDS011;44525;46.052;13.610;2023-08-21T06:26:43;19.48;;;11.30;;
58752;SDS011;44525;46.052;13.610;2023-08-21T06:29:08;13.55;;;11.35;;
58752;SDS011;44525;46.052;13.610;2023-08-21T06:31:34;15.13;;;10.63;;
58752;SDS011;44525;46.052;13.610;2023-08-21T06:33:59;15.82;;;11.68;;
58752;SDS011;44525;46.052;13.610;2023-08-21T06:36:24;13.38;;;10.93;;
58752;SDS011;44525;46.052;13.610;2023-08-21T06:38:50;16.50;;;10.57;;
58752;SDS011;44525;46.052;13.610;2023-08-21T06:41:15;16.88;;;11.15;;
58752;SDS011;44525;46.052;13.610;2023-08-21T06:43:41;15.65;;;10.93;;
58752;SDS011;44525;46.052;13.610;2023-08-21T06:46:06;16.75;;;11.63;;
58752;SDS011;44525;46.052;13.610;2023-08-21T06:48:32;13.52;;;10.85;;
58752;SDS011;44525;46.052;13.610;2023-08-21T06:50:57;16.55;;;11.15;;
58752;SDS011;44525;46.052;13.610;2023-08-21T06:53:24;15.77;;;11.05;;
58752;SDS011;44525;46.052;13.610;2023-08-21T06:55:49;15.90;;;11.32;;
58752;SDS011;44525;46.052;13.610;2023-08-21T06:58:15;12.10;;;10.10;;
58752;SDS011;44525;46.052;13.610;2023-08-21T07:00:40;14.40;;;11.40;;
58752;SDS011;44525;46.052;13.610;2023-08-21T07:03:05;14.80;;;10.68;;
58752;SDS011;44525;46.052;13.610;2023-08-21T07:05:33;13.10;;;10.20;;
58752;SDS011;44525;46.052;13.610;2023-08-21T07:07:59;14.90;;;10.27;;
58752;SDS011;44525;46.052;13.610;2023-08-21T07:10:24;13.20;;;10.07;;
58752;SDS011;44525;46.052;13.610;2023-08-21T07:12:50;14.20;;;10.18;;
58752;SDS011;44525;46.052;13.610;2023-08-21T07:15:16;13.80;;;10.88;;
58752;SDS011;44525;46.052;13.610;2023-08-21T07:17:41;15.15;;;10.32;;
58752;SDS011;44525;46.052;13.610;2023-08-21T07:20:07;14.68;;;10.57;;
58752;SDS011;44525;46.052;13.610;2023-08-21T07:22:32;14.25;;;10.15;;
58752;SDS011;44525;46.052;13.610;2023-08-21T07:24:58;15.50;;;10.32;;
58752;SDS011;44525;46.052;13.610;2023-08-21T07:27:25;14.10;;;10.60;;
58752;SDS011;44525;46.052;13.610;2023-08-21T07:29:51;13.70;;;9.98;;
58752;SDS011;44525;46.052;13.610;2023-08-21T07:32:16;15.35;;;10.60;;
58752;SDS011;44525;46.052;13.610;2023-08-21T07:34:42;16.60;;;10.82;;
58752;SDS011;44525;46.052;13.610;2023-08-21T07:37:08;12.77;;;9.98;;
58752;SDS011;44525;46.052;13.610;2023-08-21T07:39:34;14.45;;;9.88;;
58752;SDS011;44525;46.052;13.610;2023-08-21T07:41:59;14.82;;;10.30;;
58752;SDS011;44525;46.052;13.610;2023-08-21T07:44:25;12.90;;;10.70;;
58752;SDS011;44525;46.052;13.610;2023-08-21T07:46:51;13.20;;;10.80;;
58752;SDS011;44525;46.052;13.610;2023-08-21T07:49:17;14.55;;;10.38;;
58752;SDS011;44525;46.052;13.610;2023-08-21T07:51:42;12.68;;;10.50;;
58752;SDS011;44525;46.052;13.610;2023-08-21T07:54:08;15.77;;;10.35;;
58752;SDS011;44525;46.052;13.610;2023-08-21T07:56:33;13.68;;;10.40;;
58752;SDS011;44525;46.052;13.610;2023-08-21T07:59:00;16.52;;;10.70;;
58752;SDS011;44525;46.052;13.610;2023-08-21T08:01:26;15.45;;;10.38;;
58752;SDS011;44525;46.052;13.610;2023-08-21T08:03:52;13.00;;;10.45;;
58752;SDS011;44525;46.052;13.610;2023-08-21T08:06:17;15.90;;;10.38;;
58752;SDS011;44525;46.052;13.610;2023-08-21T08:08:43;14.75;;;10.07;;
58752;SDS011;44525;46.052;13.610;2023-08-21T08:11:09;14.52;;;9.82;;
58752;SDS011;44525;46.052;13.610;2023-08-21T08:13:34;14.70;;;9.93;;
58752;SDS011;44525;46.052;13.610;2023-08-21T08:16:00;18.42;;;10.90;;
58752;SDS011;44525;46.052;13.610;2023-08-21T08:18:26;13.50;;;10.15;;
58752;SDS011;44525;46.052;13.610;2023-08-21T08:20:51;14.82;;;10.20;;
58752;SDS011;44525;46.052;13.610;2023-08-21T08:23:17;12.90;;;9.05;;
58752;SDS011;44525;46.052;13.610;2023-08-21T08:25:44;17.08;;;10.80;;
58752;SDS011;44525;46.052;13.610;2023-08-21T08:28:09;16.65;;;10.63;;
58752;SDS011;44525;46.052;13.610;2023-08-21T08:30:35;16.45;;;10.10;;
58752;SDS011;44525;46.052;13.610;2023-08-21T08:33:00;14.23;;;9.93;;
58752;SDS011;44525;46.052;13.610;2023-08-21T08:35:26;17.98;;;10.35;;
58752;SDS011;44525;46.052;13.610;2023-08-21T08:37:51;14.77;;;10.98;;
58752;SDS011;44525;46.052;13.610;2023-08-21T08:40:16;16.13;;;10.13;;
58752;SDS011;44525;46.052;13.610;2023-08-21T08:42:42;15.52;;;9.93;;
58752;SDS011;44525;46.052;13.610;2023-08-21T08:45:08;14.40;;;10.23;;
58752;SDS011;44525;46.052;13.610;2023-08-21T08:47:34;16.70;;;10.43;;
58752;SDS011;44525;46.052;13.610;2023-08-21T08:50:03;20.83;;;10.35;;
58752;SDS011;44525;46.052;13.610;2023-08-21T08:52:31;12.95;;;9.55;;
58752;SDS011;44525;46.052;13.610;2023-08-21T08:55:00;14.10;;;9.98;;
58752;SDS011;44525;46.052;13.610;2023-08-21T08:57:26;13.90;;;10.05;;
58752;SDS011;44525;46.052;13.610;2023-08-21T08:59:51;12.13;;;9.60;;
58752;SDS011;44525;46.052;13.610;2023-08-21T09:02:16;14.57;;;9.70;;
58752;SDS011;44525;46.052;13.610;2023-08-21T09:04:42;15.93;;;9.98;;
58752;SDS011;44525;46.052;13.610;2023-08-21T09:07:08;12.02;;;9.80;;
58752;SDS011;44525;46.052;13.610;2023-08-21T09:09:41;14.65;;;9.52;;
58752;SDS011;44525;46.052;13.610;2023-08-21T09:12:11;13.02;;;10.15;;
58752;SDS011;44525;46.052;13.610;2023-08-21T09:14:40;16.10;;;9.75;;
58752;SDS011;44525;46.052;13.610;2023-08-21T09:17:07;14.05;;;10.48;;
58752;SDS011;44525;46.052;13.610;2023-08-21T09:19:32;13.30;;;10.20;;
58752;SDS011;44525;46.052;13.610;2023-08-21T09:21:58;14.23;;;9.70;;
58752;SDS011;44525;46.052;13.610;2023-08-21T09:24:24;11.95;;;8.98;;
58752;SDS011;44525;46.052;13.610;2023-08-21T09:26:50;11.98;;;9.52;;
58752;SDS011;44525;46.052;13.610;2023-08-21T09:29:15;14.95;;;9.70;;
58752;SDS011;44525;46.052;13.610;2023-08-21T09:31:41;12.23;;;10.00;;
58752;SDS011;44525;46.052;13.610;2023-08-21T09:34:10;15.07;;;10.23;;
58752;SDS011;44525;46.052;13.610;2023-08-21T09:36:36;16.77;;;9.63;;
58752;SDS011;44525;46.052;13.610;2023-08-21T09:39:04;13.30;;;9.80;;
58752;SDS011;44525;46.052;13.610;2023-08-21T09:41:31;12.98;;;9.50;;
58752;SDS011;44525;46.052;13.610;2023-08-21T09:44:00;13.50;;;9.73;;
58752;SDS011;44525;46.052;13.610;2023-08-21T09:46:26;11.48;;;9.27;;
58752;SDS011;44525;46.052;13.610;2023-08-21T09:48:53;11.48;;;8.98;;
58752;SDS011;44525;46.052;13.610;2023-08-21T09:51:19;12.75;;;9.68;;
58752;SDS011;44525;46.052;13.610;2023-08-21T09:53:47;13.23;;;8.65;;
58752;SDS011;44525;46.052;13.610;2023-08-21T09:56:13;15.55;;;9.18;;
58752;SDS011;44525;46.052;13.610;2023-08-21T09:58:39;12.73;;;9.18;;
58752;SDS011;44525;46.052;13.610;2023-08-21T10:01:06;13.77;;;9.05;;
58752;SDS011;44525;46.052;13.610;2023-08-21T10:03:38;12.00;;;9.23;;
58752;SDS011;44525;46.052;13.610;2023-08-21T10:06:05;14.27;;;9.85;;
58752;SDS011;44525;46.052;13.610;2023-08-21T10:08:35;13.73;;;9.93;;
58752;SDS011;44525;46.052;13.610;2023-08-21T10:11:04;10.52;;;8.07;;
58752;SDS011;44525;46.052;13.610;2023-08-21T10:13:32;10.82;;;9.20;;
58752;SDS011;44525;46.052;13.610;2023-08-21T10:15:58;14.15;;;8.88;;
58752;SDS011;44525;46.052;13.610;2023-08-21T10:18:29;13.48;;;8.57;;
58752;SDS011;44525;46.052;13.610;2023-08-21T10:20:56;11.80;;;10.60;;
58752;SDS011;44525;46.052;13.610;2023-08-21T10:23:38;10.57;;;7.93;;
58752;SDS011;44525;46.052;13.610;2023-08-21T10:26:06;11.75;;;8.15;;
58752;SDS011;44525;46.052;13.610;2023-08-21T10:33:53;13.10;;;8.50;;
58752;SDS011;44525;46.052;13.610;2023-08-21T10:39:02;10.68;;;8.13;;
58752;SDS011;44525;46.052;13.610;2023-08-21T10:41:29;10.13;;;8.07;;
58752;SDS011;44525;46.052;13.610;2023-08-21T10:43:55;11.77;;;8.48;;
58752;SDS011;44525;46.052;13.610;2023-08-21T10:46:20;11.63;;;8.07;;
58752;SDS011;44525;46.052;13.610;2023-08-21T10:48:46;13.30;;;9.00;;
58752;SDS011;44525;46.052;13.610;2023-08-21T10:51:11;10.23;;;8.38;;
58752;SDS011;44525;46.052;13.610;2023-08-21T10:53:38;9.48;;;8.27;;
58752;SDS011;44525;46.052;13.610;2023-08-21T10:56:06;13.18;;;8.27;;
58752;SDS011;44525;46.052;13.610;2023-08-21T10:58:37;10.13;;;8.05;;
58752;SDS011;44525;46.052;13.610;2023-08-21T11:01:06;11.15;;;8.18;;
58752;SDS011;44525;46.052;13.610;2023-08-21T11:03:31;9.88;;;7.65;;
58752;SDS011;44525;46.052;13.610;2023-08-21T11:06:06;12.32;;;7.95;;
58752;SDS011;44525;46.052;13.610;2023-08-21T11:08:33;12.70;;;8.18;;
58752;SDS011;44525;46.052;13.610;2023-08-21T11:11:03;10.23;;;8.30;;
58752;SDS011;44525;46.052;13.610;2023-08-21T11:13:30;10.63;;;7.97;;
58752;SDS011;44525;46.052;13.610;2023-08-21T11:16:02;9.45;;;8.05;;
58752;SDS011;44525;46.052;13.610;2023-08-21T11:18:30;11.00;;;7.68;;
58752;SDS011;44525;46.052;13.610;2023-08-21T11:21:06;11.95;;;7.88;;
58752;SDS011;44525;46.052;13.610;2023-08-21T11:23:36;9.88;;;7.93;;
58752;SDS011;44525;46.052;13.610;2023-08-21T11:26:03;10.60;;;8.35;;
58752;SDS011;44525;46.052;13.610;2023-08-21T11:28:30;9.85;;;8.23;;
58752;SDS011;44525;46.052;13.610;2023-08-21T11:30:56;10.20;;;7.68;;
58752;SDS011;44525;46.052;13.610;2023-08-21T11:33:22;10.65;;;8.50;;
58752;SDS011;44525;46.052;13.610;2023-08-21T11:35:48;12.57;;;8.35;;
58752;SDS011;44525;46.052;13.610;2023-08-21T11:38:16;14.75;;;8.40;;
58752;SDS011;44525;46.052;13.610;2023-08-21T11:40:50;11.93;;;8.00;;
58752;SDS011;44525;46.052;13.610;2023-08-21T11:43:20;11.90;;;8.10;;
58752;SDS011;44525;46.052;13.610;2023-08-21T11:45:46;10.48;;;7.75;;
58752;SDS011;44525;46.052;13.610;2023-08-21T11:48:11;10.73;;;8.23;;
58752;SDS011;44525;46.052;13.610;2023-08-21T11:50:36;10.40;;;8.55;;
58752;SDS011;44525;46.052;13.610;2023-08-21T11:53:02;12.73;;;8.52;;
58752;SDS011;44525;46.052;13.610;2023-08-21T11:55:28;14.57;;;8.77;;
58752;SDS011;44525;46.052;13.610;2023-08-21T11:57:57;11.75;;;8.65;;
58752;SDS011;44525;46.052;13.610;2023-08-21T12:00:27;12.45;;;8.20;;
58752;SDS011;44525;46.052;13.610;2023-08-21T12:02:57;12.77;;;8.68;;
58752;SDS011;44525;46.052;13.610;2023-08-21T12:05:25;12.50;;;8.30;;
58752;SDS011;44525;46.052;13.610;2023-08-21T12:07:52;9.57;;;7.72;;
58752;SDS011;44525;46.052;13.610;2023-08-21T12:10:27;9.65;;;7.80;;
58752;SDS011;44525;46.052;13.610;2023-08-21T12:12:54;12.68;;;8.18;;
58752;SDS011;44525;46.052;13.610;2023-08-21T12:15:20;12.18;;;7.63;;
58752;SDS011;44525;46.052;13.610;2023-08-21T12:17:45;12.35;;;8.30;;
58752;SDS011;44525;46.052;13.610;2023-08-21T12:20:11;11.13;;;8.25;;
58752;SDS011;44525;46.052;13.610;2023-08-21T12:22:39;8.63;;;7.45;;
58752;SDS011;44525;46.052;13.610;2023-08-21T12:25:05;10.57;;;7.97;;
58752;SDS011;44525;46.052;13.610;2023-08-21T12:27:32;9.82;;;7.90;;
58752;SDS011;44525;46.052;13.610;2023-08-21T12:29:57;9.30;;;7.95;;
58752;SDS011;44525;46.052;13.610;2023-08-21T12:32:23;11.73;;;8.32;;
58752;SDS011;44525;46.052;13.610;2023-08-21T12:34:48;9.73;;;8.35;;
58752;SDS011;44525;46.052;13.610;2023-08-21T12:37:13;10.05;;;8.20;;
58752;SDS011;44525;46.052;13.610;2023-08-21T12:39:39;14.23;;;8.32;;
58752;SDS011;44525;46.052;13.610;2023-08-21T12:42:04;11.90;;;8.40;;
58752;SDS011;44525;46.052;13.610;2023-08-21T12:44:30;14.40;;;8.32;;
58752;SDS011;44525;46.052;13.610;2023-08-21T12:46:55;9.55;;;7.97;;
58752;SDS011;44525;46.052;13.610;2023-08-21T12:49:20;15.05;;;8.93;;
58752;SDS011;44525;46.052;13.610;2023-08-21T12:51:46;9.57;;;7.95;;
58752;SDS011;44525;46.052;13.610;2023-08-21T12:54:11;10.98;;;8.90;;
58752;SDS011;44525;46.052;13.610;2023-08-21T12:56:37;9.68;;;8.20;;
58752;SDS011;44525;46.052;13.610;2023-08-21T12:59:02;9.00;;;8.00;;
58752;SDS011;44525;46.052;13.610;2023-08-21T13:01:28;9.88;;;8.32;;
58752;SDS011;44525;46.052;13.610;2023-08-21T13:03:54;11.43;;;8.18;;
58752;SDS011;44525;46.052;13.610;2023-08-21T13:06:20;11.18;;;7.75;;
58752;SDS011;44525;46.052;13.610;2023-08-21T13:08:45;9.77;;;7.75;;
58752;SDS011;44525;46.052;13.610;2023-08-21T13:11:11;10.00;;;8.38;;
58752;SDS011;44525;46.052;13.610;2023-08-21T13:13:36;10.35;;;8.30;;
58752;SDS011;44525;46.052;13.610;2023-08-21T13:16:01;12.73;;;8.13;;
58752;SDS011;44525;46.052;13.610;2023-08-21T13:18:28;11.75;;;8.00;;
58752;SDS011;44525;46.052;13.610;2023-08-21T13:20:54;11.27;;;8.70;;
58752;SDS011;44525;46.052;13.610;2023-08-21T13:23:19;10.10;;;7.82;;
58752;SDS011;44525;46.052;13.610;2023-08-21T13:25:44;9.65;;;8.40;;
58752;SDS011;44525;46.052;13.610;2023-08-21T13:28:10;12.75;;;8.95;;
58752;SDS011;44525;46.052;13.610;2023-08-21T13:30:36;9.43;;;8.18;;
58752;SDS011;44525;46.052;13.610;2023-08-21T13:33:01;12.10;;;9.25;;
58752;SDS011;44525;46.052;13.610;2023-08-21T13:35:28;13.00;;;9.00;;
58752;SDS011;44525;46.052;13.610;2023-08-21T13:37:54;9.82;;;8.30;;
58752;SDS011;44525;46.052;13.610;2023-08-21T13:40:20;10.43;;;8.32;;
58752;SDS011;44525;46.052;13.610;2023-08-21T13:42:46;11.32;;;9.15;;
58752;SDS011;44525;46.052;13.610;2023-08-21T13:45:14;11.23;;;9.35;;
58752;SDS011;44525;46.052;13.610;2023-08-21T13:47:47;12.15;;;8.57;;
58752;SDS011;44525;46.052;13.610;2023-08-21T13:50:14;10.38;;;8.68;;
58752;SDS011;44525;46.052;13.610;2023-08-21T13:52:41;13.43;;;10.45;;
58752;SDS011;44525;46.052;13.610;2023-08-21T13:55:07;11.35;;;8.95;;
58752;SDS011;44525;46.052;13.610;2023-08-21T13:57:34;11.32;;;8.57;;
58752;SDS011;44525;46.052;13.610;2023-08-21T14:00:00;16.02;;;9.15;;
58752;SDS011;44525;46.052;13.610;2023-08-21T14:02:26;12.25;;;10.05;;
58752;SDS011;44525;46.052;13.610;2023-08-21T14:04:51;11.45;;;8.82;;
58752;SDS011;44525;46.052;13.610;2023-08-21T14:07:16;11.27;;;8.45;;
58752;SDS011;44525;46.052;13.610;2023-08-21T14:09:42;10.32;;;8.38;;
58752;SDS011;44525;46.052;13.610;2023-08-21T14:12:08;10.65;;;8.35;;
58752;SDS011;44525;46.052;13.610;2023-08-21T14:14:34;12.23;;;8.52;;
58752;SDS011;44525;46.052;13.610;2023-08-21T14:17:00;10.45;;;8.60;;
58752;SDS011;44525;46.052;13.610;2023-08-21T14:19:26;12.45;;;8.93;;